Time;durP1;ratioP1;P1;durP2;ratioP2;P2;SDS_P1;SDS_P2;PMS_P1;PMS_P2;Temp;Humidity;BMP_temperature;BMP_pressure;BME280_temperature;BME280_humidity;BME280_pressure;Samples;Min_cycle;Max_cycle;Signal;HPM_P1;HPM_P2
2023/12/20 00:00:12;;;;;;;97.55;37.50;;;;;;;;;;6221593;23;20011;-92
2023/12/20 00:02:38;;;;;;;68.60;26.98;;;;;;;;;;6220968;23;20008;-92
2023/12/20 00:05:08;;;;;;;200.40;39.70;;;;;;;;;;6221503;23;20008;-92
2023/12/20 00:07:37;;;;;;;107.43;37.58;;;;;;;;;;6221863;23;20012;-92
2023/12/20 00:10:03;;;;;;;179.35;43.78;;;;;;;;;;6221370;23;20158;-92
2023/12/20 00:12:30;;;;;;;97.68;36.33;;;;;;;;;;6221146;23;20000;-92
2023/12/20 00:14:59;;;;;;;96.00;29.42;;;;;;;;;;6231458;23;20444;-92
2023/12/20 00:17:31;;;;;;;83.03;29.70;;;;;;;;;;6223283;23;20010;-92
2023/12/20 00:20:00;;;;;;;58.63;28.40;;;;;;;;;;6220814;23;20409;-92
2023/12/20 00:22:29;;;;;;;71.72;30.42;;;;;;;;;;6220977;23;20008;-93
2023/12/20 00:25:01;;;;;;;117.60;34.72;;;;;;;;;;6220870;23;20005;-92
2023/12/20 00:27:33;;;;;;;56.45;27.52;;;;;;;;;;6220885;23;20044;-92
2023/12/20 00:29:59;;;;;;;58.45;28.55;;;;;;;;;;6220416;23;20008;-92
2023/12/20 00:32:25;;;;;;;51.33;26.55;;;;;;;;;;6219994;23;20027;-93
2023/12/20 00:34:52;;;;;;;99.63;32.50;;;;;;;;;;6220931;23;20004;-93
2023/12/20 00:37:21;;;;;;;101.30;35.15;;;;;;;;;;6220536;23;20023;-92
2023/12/20 00:39:48;;;;;;;64.90;29.25;;;;;;;;;;6220585;23;20027;-92
2023/12/20 00:42:17;;;;;;;93.82;35.53;;;;;;;;;;6220633;23;20036;-93
2023/12/20 00:44:44;;;;;;;72.32;30.25;;;;;;;;;;6220770;23;20004;-93
2023/12/20 00:47:15;;;;;;;123.85;35.10;;;;;;;;;;6220925;23;20050;-92
2023/12/20 00:49:45;;;;;;;80.63;31.00;;;;;;;;;;6220839;23;20004;-92
2023/12/20 00:52:11;;;;;;;69.00;28.13;;;;;;;;;;6215629;23;20024;-92
2023/12/20 00:54:44;;;;;;;66.50;28.10;;;;;;;;;;6216024;23;20031;-92
2023/12/20 00:57:10;;;;;;;114.75;33.38;;;;;;;;;;6216299;23;20079;-92
2023/12/20 00:59:37;;;;;;;61.97;29.05;;;;;;;;;;6216085;23;20000;-92
2023/12/20 01:02:03;;;;;;;62.17;26.15;;;;;;;;;;6216207;23;20004;-92
2023/12/20 01:04:32;;;;;;;56.47;26.08;;;;;;;;;;6216300;23;20011;-92
2023/12/20 01:07:04;;;;;;;72.60;28.02;;;;;;;;;;6217679;23;20008;-92
2023/12/20 01:09:30;;;;;;;142.43;36.45;;;;;;;;;;6224384;23;20001;-92
2023/12/20 01:11:59;;;;;;;51.35;24.98;;;;;;;;;;6241936;22;20003;-92
2023/12/20 01:14:28;;;;;;;47.15;24.75;;;;;;;;;;6231206;23;20012;-92
2023/12/20 01:16:58;;;;;;;57.15;24.05;;;;;;;;;;6216739;23;20445;-92
2023/12/20 01:19:30;;;;;;;44.00;21.35;;;;;;;;;;6215317;23;20096;-92
2023/12/20 01:21:56;;;;;;;112.35;32.33;;;;;;;;;;6216077;23;20012;-92
2023/12/20 01:24:25;;;;;;;57.83;25.63;;;;;;;;;;6215458;23;20091;-91
2023/12/20 01:26:51;;;;;;;48.42;24.02;;;;;;;;;;6214935;23;20015;-91
2023/12/20 01:29:18;;;;;;;76.47;29.13;;;;;;;;;;6214574;23;20015;-94
2023/12/20 01:31:44;;;;;;;43.58;23.75;;;;;;;;;;6215388;23;20005;-93
2023/12/20 01:34:10;;;;;;;41.33;22.90;;;;;;;;;;6215258;23;20418;-93
2023/12/20 01:36:36;;;;;;;95.43;25.55;;;;;;;;;;6215160;23;20009;-92
2023/12/20 01:39:14;;;;;;;90.68;28.40;;;;;;;;;;6216018;23;20016;-93
2023/12/20 01:41:55;;;;;;;91.03;29.98;;;;;;;;;;6216087;23;20036;-91
2023/12/20 01:44:21;;;;;;;133.25;33.28;;;;;;;;;;6215854;23;20477;-92
2023/12/20 01:46:48;;;;;;;72.90;31.45;;;;;;;;;;6217024;23;20005;-92
2023/12/20 01:49:18;;;;;;;88.35;27.50;;;;;;;;;;6218660;23;20373;-92
2023/12/20 01:51:45;;;;;;;50.22;25.73;;;;;;;;;;6215492;23;20346;-93
2023/12/20 01:54:17;;;;;;;47.22;25.70;;;;;;;;;;6215710;23;20068;-93
2023/12/20 01:56:43;;;;;;;64.47;28.10;;;;;;;;;;6215232;23;20011;-92
2023/12/20 01:59:16;;;;;;;48.65;24.95;;;;;;;;;;6215487;23;20004;-93
2023/12/20 02:01:42;;;;;;;196.45;38.03;;;;;;;;;;6215703;23;20025;-92
2023/12/20 02:04:08;;;;;;;69.40;30.67;;;;;;;;;;6215387;23;20009;-92
2023/12/20 02:06:37;;;;;;;134.77;36.42;;;;;;;;;;6215421;23;20000;-93
2023/12/20 02:09:03;;;;;;;52.95;28.23;;;;;;;;;;6215998;23;20016;-92
2023/12/20 02:11:36;;;;;;;64.63;28.17;;;;;;;;;;6215240;23;20005;-92
2023/12/20 02:14:02;;;;;;;69.25;27.52;;;;;;;;;;6233059;23;20012;-92
2023/12/20 02:16:28;;;;;;;86.57;27.73;;;;;;;;;;6226691;23;20422;-93
2023/12/20 02:18:54;;;;;;;88.20;27.17;;;;;;;;;;6217270;23;20028;-92
2023/12/20 02:21:34;;;;;;;66.15;26.13;;;;;;;;;;6217255;23;20000;-91
2023/12/20 02:24:00;;;;;;;51.05;26.60;;;;;;;;;;6216578;23;20008;-91
2023/12/20 02:26:29;;;;;;;51.53;25.52;;;;;;;;;;6216891;23;20028;-93
2023/12/20 02:29:02;;;;;;;112.13;31.98;;;;;;;;;;6216913;23;20017;-93
2023/12/20 02:31:31;;;;;;;90.88;30.25;;;;;;;;;;6217073;23;20030;-92
2023/12/20 02:34:06;;;;;;;144.07;32.75;;;;;;;;;;6216858;23;20004;-91
2023/12/20 02:36:32;;;;;;;124.60;29.45;;;;;;;;;;6216931;23;20031;-93
2023/12/20 02:39:02;;;;;;;49.33;25.02;;;;;;;;;;6217095;23;20008;-92
2023/12/20 02:41:28;;;;;;;77.75;25.95;;;;;;;;;;6217509;23;20464;-93
2023/12/20 02:43:57;;;;;;;215.18;39.33;;;;;;;;;;6217844;23;20004;-93
2023/12/20 02:46:23;;;;;;;49.88;25.42;;;;;;;;;;6217982;23;20055;-92
2023/12/20 02:48:58;;;;;;;61.65;29.15;;;;;;;;;;6217478;23;20047;-92
2023/12/20 02:51:24;;;;;;;75.85;29.90;;;;;;;;;;6228719;22;20020;-92
2023/12/20 02:53:57;;;;;;;50.53;24.85;;;;;;;;;;6242479;22;20068;-93
2023/12/20 02:56:36;;;;;;;170.30;36.25;;;;;;;;;;6226924;23;20036;-93
2023/12/20 02:59:05;;;;;;;79.50;29.58;;;;;;;;;;6216256;23;20005;-92
2023/12/20 03:01:41;;;;;;;139.65;34.38;;;;;;;;;;6215484;23;20453;-93
2023/12/20 03:07:11;;;;;;;65.77;30.70;;;;;;;;;;6218060;23;20686;-93
2023/12/20 03:09:49;;;;;;;54.53;26.50;;;;;;;;;;6216568;23;20224;-93
2023/12/20 03:12:19;;;;;;;54.08;24.70;;;;;;;;;;6217183;23;20012;-93
2023/12/20 03:14:45;;;;;;;110.88;31.30;;;;;;;;;;6216438;23;20005;-93
2023/12/20 03:17:14;;;;;;;63.90;26.13;;;;;;;;;;6216468;23;20012;-93
2023/12/20 03:22:45;;;;;;;51.38;30.25;;;;;;;;;;6217685;23;20063;-93
2023/12/20 03:25:14;;;;;;;167.48;38.83;;;;;;;;;;6216596;23;20163;-92
2023/12/20 03:27:40;;;;;;;53.85;30.58;;;;;;;;;;6216328;23;20008;-92
2023/12/20 03:30:13;;;;;;;142.98;32.13;;;;;;;;;;6216588;23;20446;-93
2023/12/20 03:32:42;;;;;;;192.75;39.75;;;;;;;;;;6216268;23;20000;-92
2023/12/20 03:35:19;;;;;;;;;;;;;;;;;;;;;
2023/12/20 03:37:51;;;;;;;61.45;28.77;;;;;;;;;;6217554;23;20509;-93
2023/12/20 03:40:20;;;;;;;73.82;30.98;;;;;;;;;;6216254;23;20009;-92
2023/12/20 03:42:57;;;;;;;57.58;27.85;;;;;;;;;;6192232;23;20024;-92
2023/12/20 03:45:26;;;;;;;55.05;28.70;;;;;;;;;;6216212;23;20008;-93
2023/12/20 03:47:56;;;;;;;69.45;29.75;;;;;;;;;;6216013;23;20020;-92
2023/12/20 03:50:48;;;;;;;56.13;27.50;;;;;;;;;;6215401;23;20013;-92
2023/12/20 03:53:14;;;;;;;78.70;31.38;;;;;;;;;;6186064;23;20346;-93
2023/12/20 03:55:40;;;;;;;123.70;36.47;;;;;;;;;;6191209;23;20022;-93
2023/12/20 03:58:06;;;;;;;48.15;25.77;;;;;;;;;;6216194;23;20078;-93
2023/12/20 04:00:39;;;;;;;144.70;36.80;;;;;;;;;;6216661;23;20088;-93
2023/12/20 04:03:14;;;;;;;72.28;31.35;;;;;;;;;;6216302;23;20008;-93
2023/12/20 04:05:41;;;;;;;83.13;31.30;;;;;;;;;;6215943;23;20426;-93
2023/12/20 04:08:13;;;;;;;52.47;30.73;;;;;;;;;;6215922;23;20016;-93
2023/12/20 04:10:39;;;;;;;84.75;36.03;;;;;;;;;;6216071;23;20083;-93
2023/12/20 04:13:08;;;;;;;56.00;29.13;;;;;;;;;;6215805;23;20025;-93
2023/12/20 04:15:46;;;;;;;53.03;28.67;;;;;;;;;;6216116;23;20334;-92
2023/12/20 04:18:18;;;;;;;63.17;31.75;;;;;;;;;;6216512;23;20055;-92
2023/12/20 04:21:06;;;;;;;144.93;37.10;;;;;;;;;;6216272;23;20009;-93
2023/12/20 04:23:35;;;;;;;78.00;31.38;;;;;;;;;;6216298;23;20506;-92
2023/12/20 04:26:01;;;;;;;146.00;39.65;;;;;;;;;;6216746;23;20022;-93
2023/12/20 04:28:30;;;;;;;56.33;27.95;;;;;;;;;;6217214;23;20013;-92
2023/12/20 04:30:57;;;;;;;67.35;30.50;;;;;;;;;;6220745;23;20000;-92
2023/12/20 04:33:23;;;;;;;59.20;28.88;;;;;;;;;;6237784;23;19993;-94
2023/12/20 04:35:55;;;;;;;54.03;28.10;;;;;;;;;;6224625;23;20023;-93
2023/12/20 04:38:21;;;;;;;48.40;27.70;;;;;;;;;;6166681;23;20090;-91
2023/12/20 04:40:50;;;;;;;82.22;30.90;;;;;;;;;;6186052;23;20032;-92
2023/12/20 04:43:20;;;;;;;72.78;32.50;;;;;;;;;;6165157;23;20005;-93
2023/12/20 04:45:46;;;;;;;49.65;28.65;;;;;;;;;;6160975;23;20009;-92
2023/12/20 04:48:15;;;;;;;50.28;29.65;;;;;;;;;;6161924;23;20044;-93
2023/12/20 04:50:42;;;;;;;54.45;29.77;;;;;;;;;;6161595;23;20005;-93
2023/12/20 04:53:14;;;;;;;128.38;33.92;;;;;;;;;;6160546;23;20005;-92
2023/12/20 04:55:43;;;;;;;56.28;29.27;;;;;;;;;;6161266;23;20419;-95
2023/12/20 04:58:10;;;;;;;54.80;30.02;;;;;;;;;;6160671;23;20009;-92
2023/12/20 05:00:36;;;;;;;54.33;30.50;;;;;;;;;;6160887;23;20009;-92
2023/12/20 05:03:05;;;;;;;87.78;31.63;;;;;;;;;;6159936;23;20016;-92
2023/12/20 05:05:31;;;;;;;79.10;33.53;;;;;;;;;;6160423;23;20005;-92
2023/12/20 05:08:01;;;;;;;55.13;29.80;;;;;;;;;;6160502;23;20017;-93
2023/12/20 05:10:27;;;;;;;54.45;30.63;;;;;;;;;;6160934;23;20005;-91
2023/12/20 05:12:54;;;;;;;54.47;31.75;;;;;;;;;;6160501;23;20005;-93
2023/12/20 05:15:23;;;;;;;77.95;33.15;;;;;;;;;;6160848;23;20005;-92
2023/12/20 05:17:49;;;;;;;108.80;35.83;;;;;;;;;;6160855;23;20410;-92
2023/12/20 05:20:18;;;;;;;55.53;29.50;;;;;;;;;;6160730;23;20385;-93
2023/12/20 05:22:45;;;;;;;78.75;33.20;;;;;;;;;;6161028;23;20012;-92
2023/12/20 05:25:11;;;;;;;73.93;33.28;;;;;;;;;;6160610;23;20088;-93
2023/12/20 05:27:38;;;;;;;66.18;31.55;;;;;;;;;;6161025;23;20005;-93
2023/12/20 05:30:10;;;;;;;145.98;39.60;;;;;;;;;;6161008;23;20430;-92
2023/12/20 05:32:40;;;;;;;91.35;30.88;;;;;;;;;;6160365;23;20009;-93
2023/12/20 05:35:07;;;;;;;57.10;27.40;;;;;;;;;;6160048;23;20016;-93
2023/12/20 05:37:39;;;;;;;67.65;30.80;;;;;;;;;;6159797;23;20016;-93
2023/12/20 05:40:05;;;;;;;90.30;34.47;;;;;;;;;;6160677;23;20024;-93
2023/12/20 05:42:32;;;;;;;72.68;34.00;;;;;;;;;;6160524;23;20005;-92
2023/12/20 05:44:58;;;;;;;85.90;32.63;;;;;;;;;;6160875;23;20004;-92
2023/12/20 05:47:27;;;;;;;76.03;31.35;;;;;;;;;;6160384;23;20009;-92
2023/12/20 05:50:02;;;;;;;196.50;40.15;;;;;;;;;;6161466;23;20032;-92
2023/12/20 05:52:28;;;;;;;57.50;27.23;;;;;;;;;;6162480;23;20005;-93
2023/12/20 05:55:00;;;;;;;74.13;30.40;;;;;;;;;;6163009;23;20087;-93
2023/12/20 05:57:30;;;;;;;67.33;30.60;;;;;;;;;;6163070;23;20008;-92
2023/12/20 05:59:59;;;;;;;98.55;33.00;;;;;;;;;;6163209;23;20244;-94
2023/12/20 06:05:28;;;;;;;50.08;28.38;;;;;;;;;;6189814;23;20008;-92
2023/12/20 06:08:02;;;;;;;52.63;28.15;;;;;;;;;;6163588;23;20378;-92
2023/12/20 06:10:32;;;;;;;81.50;30.10;;;;;;;;;;6163008;23;20430;-92
2023/12/20 06:13:01;;;;;;;48.92;25.15;;;;;;;;;;6138590;23;20013;-93
2023/12/20 06:15:27;;;;;;;109.57;35.35;;;;;;;;;;6189266;23;20020;-93
2023/12/20 06:18:03;;;;;;;92.88;34.05;;;;;;;;;;6180191;23;20301;-92
2023/12/20 06:20:51;;;;;;;70.18;32.67;;;;;;;;;;6183791;23;20001;-93
2023/12/20 06:23:36;;;;;;;83.07;31.95;;;;;;;;;;6184300;23;20334;-94
2023/12/20 06:26:14;;;;;;;55.58;27.50;;;;;;;;;;6182101;23;20009;-92
2023/12/20 06:28:46;;;;;;;74.82;29.73;;;;;;;;;;6181604;23;20013;-92
2023/12/20 06:31:15;;;;;;;74.20;28.40;;;;;;;;;;6182602;23;20009;-92
2023/12/20 06:33:42;;;;;;;68.80;29.05;;;;;;;;;;6182660;23;20009;-93
2023/12/20 06:36:11;;;;;;;105.55;33.17;;;;;;;;;;6182076;23;20005;-93
2023/12/20 06:38:43;;;;;;;69.43;26.35;;;;;;;;;;6182461;23;20009;-93
2023/12/20 06:41:17;;;;;;;76.57;27.58;;;;;;;;;;6182118;23;20008;-93
2023/12/20 06:43:49;;;;;;;47.65;24.70;;;;;;;;;;6182110;23;20012;-93
2023/12/20 06:46:20;;;;;;;41.42;24.48;;;;;;;;;;6181812;23;20081;-91
2023/12/20 06:48:47;;;;;;;103.05;32.95;;;;;;;;;;6181511;23;20351;-93
2023/12/20 06:51:17;;;;;;;54.72;27.60;;;;;;;;;;6160001;23;20006;-91
2023/12/20 06:59:53;;;;;;;74.75;32.92;;;;;;;;;;6158346;23;20280;-93
2023/12/20 07:05:29;;;;;;;57.00;31.93;;;;;;;;;;6174761;23;20037;-94
2023/12/20 07:08:02;;;;;;;54.28;29.08;;;;;;;;;;6193997;23;20012;-93
2023/12/20 07:10:31;;;;;;;74.75;33.63;;;;;;;;;;6181774;23;20025;-92
2023/12/20 07:13:03;;;;;;;49.88;29.00;;;;;;;;;;6181818;23;20461;-93
2023/12/20 07:15:38;;;;;;;101.57;33.22;;;;;;;;;;6181757;23;20088;-93
2023/12/20 07:18:05;;;;;;;54.70;27.13;;;;;;;;;;6181832;23;20084;-93
2023/12/20 07:20:34;;;;;;;47.53;27.88;;;;;;;;;;6181596;23;20005;-93
2023/12/20 07:23:06;;;;;;;91.40;32.25;;;;;;;;;;6172609;23;20010;-93
2023/12/20 07:25:39;;;;;;;59.80;28.92;;;;;;;;;;6181808;23;20024;-94
2023/12/20 07:28:08;;;;;;;72.78;34.05;;;;;;;;;;6182906;23;20020;-91
2023/12/20 07:30:41;;;;;;;80.03;32.28;;;;;;;;;;6181796;23;20006;-93
2023/12/20 07:33:27;;;;;;;57.73;30.73;;;;;;;;;;6182640;23;20068;-95
2023/12/20 07:35:56;;;;;;;48.80;28.65;;;;;;;;;;6182204;23;20313;-95
2023/12/20 07:38:44;;;;;;;55.40;29.20;;;;;;;;;;6181546;23;19997;-94
2023/12/20 07:41:15;;;;;;;68.70;30.73;;;;;;;;;;6181086;23;20005;-94
2023/12/20 07:43:56;;;;;;;44.92;26.48;;;;;;;;;;6181586;23;20009;-96
2023/12/20 07:46:25;;;;;;;52.92;28.15;;;;;;;;;;6186577;23;20465;-93
2023/12/20 07:49:03;;;;;;;64.13;28.95;;;;;;;;;;6186643;23;20013;-93
2023/12/20 07:51:32;;;;;;;47.00;26.38;;;;;;;;;;6186822;23;20056;-93
2023/12/20 07:53:58;;;;;;;46.50;26.27;;;;;;;;;;6187215;23;20470;-93
2023/12/20 07:56:24;;;;;;;51.40;28.83;;;;;;;;;;6190127;23;20003;-90
2023/12/20 07:58:50;;;;;;;48.05;26.77;;;;;;;;;;6188315;23;20005;-91
2023/12/20 08:01:22;;;;;;;53.88;27.50;;;;;;;;;;6161552;23;20005;-91
2023/12/20 08:03:58;;;;;;;49.22;28.17;;;;;;;;;;6161514;23;20009;-91
2023/12/20 08:06:24;;;;;;;48.72;28.02;;;;;;;;;;6161219;23;20032;-91
2023/12/20 08:08:56;;;;;;;51.78;28.98;;;;;;;;;;6161130;23;20039;-92
2023/12/20 08:11:25;;;;;;;46.50;27.73;;;;;;;;;;6161236;23;20477;-93
2023/12/20 08:13:58;;;;;;;57.50;28.65;;;;;;;;;;6161145;23;20017;-90
2023/12/20 08:16:30;;;;;;;69.75;30.10;;;;;;;;;;6161462;23;20399;-92
2023/12/20 08:19:08;;;;;;;50.00;26.38;;;;;;;;;;6161222;23;20001;-91
2023/12/20 08:21:37;;;;;;;54.00;26.25;;;;;;;;;;6161128;23;20009;-92
2023/12/20 08:24:10;;;;;;;48.78;26.55;;;;;;;;;;6160704;23;20009;-95
2023/12/20 08:26:36;;;;;;;55.53;27.83;;;;;;;;;;6186911;23;20035;-92
2023/12/20 08:29:14;;;;;;;47.33;26.17;;;;;;;;;;6160370;23;20063;-92
2023/12/20 08:31:40;;;;;;;47.50;26.65;;;;;;;;;;6160297;23;20063;-93
2023/12/20 08:34:06;;;;;;;53.92;26.88;;;;;;;;;;6161733;23;20009;-92
2023/12/20 08:36:35;;;;;;;53.75;29.65;;;;;;;;;;6162598;23;20435;-93
2023/12/20 08:39:07;;;;;;;51.83;28.92;;;;;;;;;;6160934;23;20012;-92
2023/12/20 08:41:37;;;;;;;51.53;27.70;;;;;;;;;;6160435;23;20005;-91
2023/12/20 08:44:17;;;;;;;57.47;28.90;;;;;;;;;;6160411;23;20064;-91
2023/12/20 08:46:52;;;;;;;49.22;26.75;;;;;;;;;;6161338;23;20013;-91
2023/12/20 08:49:25;;;;;;;52.00;26.38;;;;;;;;;;6169402;23;20016;-92
2023/12/20 08:52:11;;;;;;;55.47;26.85;;;;;;;;;;6161428;23;20005;-93
2023/12/20 08:54:40;;;;;;;64.78;26.10;;;;;;;;;;6161463;23;20005;-91
2023/12/20 08:57:09;;;;;;;52.92;27.88;;;;;;;;;;6168573;23;20021;-90
2023/12/20 08:59:38;;;;;;;50.80;27.08;;;;;;;;;;6160528;23;20013;-92
2023/12/20 09:02:10;;;;;;;55.72;29.42;;;;;;;;;;6160513;23;20005;-92
2023/12/20 09:04:42;;;;;;;60.85;27.40;;;;;;;;;;6160733;23;20009;-91
2023/12/20 09:07:21;;;;;;;48.40;25.42;;;;;;;;;;6160924;23;20008;-90
2023/12/20 09:15:44;;;;;;;55.53;28.10;;;;;;;;;;6125576;23;20016;-92
2023/12/20 09:18:10;;;;;;;70.93;28.08;;;;;;;;;;6101328;23;20010;-91
2023/12/20 09:20:42;;;;;;;52.95;25.98;;;;;;;;;;6100864;23;20010;-91
2023/12/20 09:23:18;;;;;;;53.10;24.83;;;;;;;;;;6100910;23;20002;-93
2023/12/20 09:25:47;;;;;;;50.25;24.90;;;;;;;;;;6101036;23;20347;-92
2023/12/20 09:28:16;;;;;;;54.70;25.27;;;;;;;;;;6101282;23;20034;-93
2023/12/20 09:30:46;;;;;;;58.45;23.65;;;;;;;;;;6101946;23;20013;-92
2023/12/20 09:33:18;;;;;;;51.08;24.80;;;;;;;;;;6103507;23;20002;-92
2023/12/20 09:35:44;;;;;;;47.40;24.70;;;;;;;;;;6125226;23;20021;-92
2023/12/20 09:38:15;;;;;;;51.88;24.58;;;;;;;;;;6126096;23;20002;-92
2023/12/20 09:40:42;;;;;;;50.55;25.48;;;;;;;;;;6125384;23;20010;-93
2023/12/20 09:43:17;;;;;;;51.90;26.42;;;;;;;;;;6125654;23;20002;-91
2023/12/20 09:45:50;;;;;;;52.95;26.83;;;;;;;;;;6160091;23;20458;-92
2023/12/20 09:48:16;;;;;;;;;;;;;;;;;;6160861;23;20017;-93
2023/12/20 09:50:43;;;;;;;54.47;30.67;;;;;;;;;;6160293;23;20306;-94
2023/12/20 09:53:13;;;;;;;55.15;26.83;;;;;;;;;;6160273;23;20151;-91
2023/12/20 09:55:45;;;;;;;46.05;23.60;;;;;;;;;;6163055;23;20001;-93
2023/12/20 09:58:18;;;;;;;39.10;20.25;;;;;;;;;;6166508;23;20024;-92
2023/12/20 10:00:48;;;;;;;43.25;20.50;;;;;;;;;;6160497;23;20012;-93
2023/12/20 10:03:18;;;;;;;41.83;19.98;;;;;;;;;;6162133;23;20009;-95
2023/12/20 10:05:56;;;;;;;40.17;20.70;;;;;;;;;;6162418;23;20006;-93
2023/12/20 10:08:25;;;;;;;44.70;21.85;;;;;;;;;;6162741;23;20067;-94
2023/12/20 10:10:57;;;;;;;50.08;22.35;;;;;;;;;;6161968;23;20005;-94
2023/12/20 10:13:59;;;;;;;42.05;20.73;;;;;;;;;;6160042;23;20319;-94
2023/12/20 10:19:22;;;;;;;11.65;6.15;;;;;;;;;;6039720;23;20008;-93
2023/12/20 10:25:46;;;;;;;8.05;5.07;;;;;;;;;;5982576;24;20113;-94
2023/12/20 10:50:21;;;;;;;7.55;5.30;;;;;;;;;;6214019;22;19926;-96
2023/12/20 10:53:16;;;;;;;5.80;4.40;;;;;;;;;;6203328;22;20020;-96
2023/12/20 10:58:49;;;;;;;4.95;3.58;;;;;;;;;;6232734;22;20031;-96
2023/12/20 11:13:52;;;;;;;5.78;3.10;;;;;;;;;;6169286;23;20005;-92
2023/12/20 11:16:20;;;;;;;4.57;3.13;;;;;;;;;;6161273;23;20100;-95
2023/12/20 11:18:54;;;;;;;4.82;2.85;;;;;;;;;;6215950;22;20060;-95
2023/12/20 11:27:02;;;;;;;5.18;3.15;;;;;;;;;;6189333;23;20021;-96
2023/12/20 11:29:39;;;;;;;3.75;2.63;;;;;;;;;;6190380;23;20395;-95
2023/12/20 11:32:27;;;;;;;3.92;2.72;;;;;;;;;;6186552;23;20009;-93
2023/12/20 11:35:12;;;;;;;7.15;2.60;;;;;;;;;;6186808;23;20072;-91
2023/12/20 11:37:46;;;;;;;5.07;3.28;;;;;;;;;;6186205;23;20095;-95
2023/12/20 11:40:21;;;;;;;4.68;3.13;;;;;;;;;;6185621;23;20056;-92
2023/12/20 11:42:57;;;;;;;3.53;2.55;;;;;;;;;;6185833;23;20005;-95
2023/12/20 11:45:51;;;;;;;6.53;2.88;;;;;;;;;;6185726;23;20005;-93
2023/12/20 11:48:20;;;;;;;3.30;2.35;;;;;;;;;;6186373;23;20009;-95
2023/12/20 11:50:46;;;;;;;4.93;2.92;;;;;;;;;;6185846;23;20013;-92
2023/12/20 11:53:20;;;;;;;3.83;2.65;;;;;;;;;;6186498;23;20005;-94
2023/12/20 11:55:51;;;;;;;4.20;3.13;;;;;;;;;;6186242;23;20012;-93
2023/12/20 11:58:23;;;;;;;4.28;2.50;;;;;;;;;;6174420;22;20095;-96
2023/12/20 12:00:52;;;;;;;4.20;3.05;;;;;;;;;;6161645;23;20085;-96
2023/12/20 12:03:24;;;;;;;5.18;2.97;;;;;;;;;;6162714;23;20028;-93
2023/12/20 12:05:56;;;;;;;4.35;3.25;;;;;;;;;;6162179;23;20303;-94
2023/12/20 12:08:26;;;;;;;4.30;2.72;;;;;;;;;;6179049;23;20080;-94
2023/12/20 12:11:01;;;;;;;5.68;3.42;;;;;;;;;;6160327;23;20006;-95
2023/12/20 12:13:30;;;;;;;4.68;3.03;;;;;;;;;;6165797;23;20009;-95
2023/12/20 12:15:59;;;;;;;3.75;2.30;;;;;;;;;;6162479;23;20047;-94
2023/12/20 12:18:26;;;;;;;5.07;3.03;;;;;;;;;;6161579;23;20005;-95
2023/12/20 12:24:21;;;;;;;4.60;2.50;;;;;;;;;;6188286;23;20055;-94
2023/12/20 12:26:54;;;;;;;4.20;2.70;;;;;;;;;;6095932;23;20014;-93
2023/12/20 12:29:21;;;;;;;4.97;3.70;;;;;;;;;;6157055;23;20434;-94
2023/12/20 12:31:54;;;;;;;3.75;2.67;;;;;;;;;;6163277;23;20005;-95
2023/12/20 12:34:39;;;;;;;3.70;2.83;;;;;;;;;;6164375;23;20062;-95
2023/12/20 12:37:20;;;;;;;3.55;2.67;;;;;;;;;;6163987;23;20383;-94
2023/12/20 12:43:33;;;;;;;3.55;2.72;;;;;;;;;;6188227;23;20084;-95
2023/12/20 12:55:11;;;;;;;4.00;2.72;;;;;;;;;;6098681;23;20360;-92
2023/12/20 12:57:40;;;;;;;3.55;2.00;;;;;;;;;;6103282;23;20093;-94
2023/12/20 13:03:17;;;;;;;3.80;2.28;;;;;;;;;;6126968;22;20035;-93
2023/12/20 13:05:43;;;;;;;6.45;3.00;;;;;;;;;;6218460;22;20103;-95
2023/12/20 13:08:44;;;;;;;3.47;2.63;;;;;;;;;;6248908;23;20047;-95
2023/12/20 13:11:20;;;;;;;;;;;;;;;;;;;;;
2023/12/20 13:14:15;;;;;;;2.97;2.10;;;;;;;;;;6249078;23;20089;-96
2023/12/20 13:16:45;;;;;;;2.08;1.50;;;;;;;;;;6247830;23;20080;-93
2023/12/20 13:24:50;;;;;;;5.30;2.75;;;;;;;;;;6242682;22;20070;-95
2023/12/20 13:27:50;;;;;;;10.38;2.90;;;;;;;;;;6224619;23;20004;-96
2023/12/20 13:30:32;;;;;;;3.15;1.98;;;;;;;;;;6229901;23;20099;-96
2023/12/20 13:33:28;;;;;;;5.25;2.38;;;;;;;;;;6225468;23;20000;-96
2023/12/20 13:48:24;;;;;;;5.57;2.22;;;;;;;;;;6187814;22;20034;-94
2023/12/20 13:54:21;;;;;;;10.07;3.17;;;;;;;;;;6250604;23;20444;-95
2023/12/20 14:06:03;;;;;;;7.18;3.03;;;;;;;;;;6214626;23;20012;-95
2023/12/20 14:08:48;;;;;;;3.55;2.22;;;;;;;;;;6221426;23;20020;-96
2023/12/20 14:11:41;;;;;;;16.02;4.32;;;;;;;;;;6226251;23;20425;-92
2023/12/20 14:14:18;;;;;;;17.90;3.70;;;;;;;;;;6218588;23;20108;-96
2023/12/20 14:22:58;;;;;;;4.60;2.90;;;;;;;;;;6220540;23;20039;-96
2023/12/20 14:28:36;;;;;;;15.37;3.97;;;;;;;;;;6142959;23;20024;-93
2023/12/20 14:34:06;;;;;;;4.03;2.37;;;;;;;;;;6250723;23;20436;-94
2023/12/20 14:36:39;;;;;;;4.88;3.03;;;;;;;;;;6240463;23;20011;-95
2023/12/20 14:39:08;;;;;;;4.13;2.42;;;;;;;;;;6251222;23;20004;-94
2023/12/20 14:41:37;;;;;;;5.10;3.35;;;;;;;;;;6266701;23;20004;-92
2023/12/20 14:44:06;;;;;;;7.63;2.55;;;;;;;;;;6256311;23;20004;-93
2023/12/20 14:46:35;;;;;;;8.43;3.35;;;;;;;;;;6272754;22;20034;-91
2023/12/20 14:49:07;;;;;;;5.45;3.10;;;;;;;;;;6267214;22;20506;-96
2023/12/20 14:51:53;;;;;;;12.38;5.10;;;;;;;;;;6249277;23;20011;-94
2023/12/20 14:54:29;;;;;;;12.00;4.03;;;;;;;;;;6248499;23;20007;-93
2023/12/20 14:57:14;;;;;;;13.02;4.93;;;;;;;;;;6247956;23;20008;-94
2023/12/20 14:59:43;;;;;;;16.35;6.28;;;;;;;;;;6249606;23;20004;-96
2023/12/20 15:02:12;;;;;;;18.05;5.20;;;;;;;;;;6248454;23;20011;-95
2023/12/20 15:05:01;;;;;;;17.15;6.88;;;;;;;;;;6249334;23;20007;-93
2023/12/20 15:07:30;;;;;;;14.02;4.50;;;;;;;;;;6249543;23;20000;-94
2023/12/20 15:10:02;;;;;;;6.18;4.75;;;;;;;;;;6247082;23;20019;-94
2023/12/20 15:12:33;;;;;;;5.80;3.53;;;;;;;;;;6247598;23;20024;-91
2023/12/20 15:15:37;;;;;;;4.95;3.40;;;;;;;;;;6216235;23;20025;-95
2023/12/20 15:18:15;;;;;;;5.40;3.05;;;;;;;;;;6216284;23;20008;-94
2023/12/20 15:20:44;;;;;;;6.72;3.92;;;;;;;;;;6215920;23;20008;-93
2023/12/20 15:35:31;;;;;;;6.97;4.70;;;;;;;;;;6101908;23;20071;-94
2023/12/20 15:38:36;;;;;;;5.18;4.18;;;;;;;;;;6171719;23;20025;-94
2023/12/20 15:41:27;;;;;;;5.10;3.35;;;;;;;;;;6196552;23;20012;-92
2023/12/20 15:44:07;;;;;;;5.85;3.83;;;;;;;;;;6162040;23;20087;-93
2023/12/20 15:46:42;;;;;;;5.25;3.33;;;;;;;;;;6182939;23;20005;-94
2023/12/20 15:52:22;;;;;;;5.82;3.80;;;;;;;;;;6156688;23;20523;-93
2023/12/20 15:54:55;;;;;;;6.78;4.10;;;;;;;;;;6134237;23;20112;-96
2023/12/20 16:02:59;;;;;;;5.75;3.78;;;;;;;;;;6226104;23;20084;-94
2023/12/20 16:20:09;;;;;;;4.25;3.38;;;;;;;;;;6227632;23;20461;-91
2023/12/20 16:28:47;;;;;;;5.20;3.97;;;;;;;;;;6228241;23;20031;-94
2023/12/20 16:34:11;;;;;;;6.53;3.80;;;;;;;;;;6194162;22;20086;-95
2023/12/20 16:39:09;;;;;;;4.93;3.97;;;;;;;;;;6228577;22;20009;-93
2023/12/20 16:42:05;;;;;;;4.65;3.60;;;;;;;;;;6218843;23;20007;-96
2023/12/20 16:47:41;;;;;;;6.18;3.95;;;;;;;;;;6216766;22;20078;-91
2023/12/20 16:50:13;;;;;;;6.15;3.80;;;;;;;;;;6192589;23;20095;-96
2023/12/20 16:55:43;;;;;;;6.85;4.90;;;;;;;;;;6209947;22;20042;-93
2023/12/20 17:20:37;;;;;;;6.13;5.22;;;;;;;;;;6235897;23;20081;-92
2023/12/20 17:23:06;;;;;;;5.68;3.60;;;;;;;;;;6210215;23;20011;-93
2023/12/20 17:25:39;;;;;;;4.40;3.10;;;;;;;;;;6195027;23;20008;-92
2023/12/20 17:39:43;;;;;;;2.72;1.70;;;;;;;;;;6127047;23;20471;-92
2023/12/20 17:42:30;;;;;;;4.03;2.50;;;;;;;;;;6175815;23;20021;-92
2023/12/20 17:44:59;;;;;;;2.97;2.25;;;;;;;;;;6190661;23;20012;-93
2023/12/20 17:47:28;;;;;;;2.30;1.90;;;;;;;;;;6193127;23;20004;-93
2023/12/20 17:50:12;;;;;;;2.92;1.95;;;;;;;;;;6192974;23;20016;-94
2023/12/20 17:52:44;;;;;;;3.28;2.15;;;;;;;;;;6194316;23;20011;-91
2023/12/20 17:55:13;;;;;;;2.97;1.58;;;;;;;;;;6192844;23;20001;-95
2023/12/20 17:57:40;;;;;;;3.05;1.75;;;;;;;;;;6193275;23;20031;-93
2023/12/20 18:00:25;;;;;;;1.92;1.00;;;;;;;;;;6192655;23;20000;-93
2023/12/20 18:02:54;;;;;;;3.47;1.40;;;;;;;;;;6193380;23;20032;-95
2023/12/20 18:05:21;;;;;;;2.67;1.60;;;;;;;;;;6193793;23;20027;-94
2023/12/20 18:07:52;;;;;;;2.20;1.48;;;;;;;;;;6193100;23;20005;-92
2023/12/20 18:10:21;;;;;;;3.65;1.23;;;;;;;;;;6156986;23;20098;-96
2023/12/20 18:12:47;;;;;;;1.98;1.10;;;;;;;;;;6133682;23;20351;-93
2023/12/20 18:15:20;;;;;;;1.88;1.20;;;;;;;;;;6133085;23;20068;-94
2023/12/20 18:18:00;;;;;;;1.92;1.30;;;;;;;;;;6132125;23;20093;-94
2023/12/20 18:20:26;;;;;;;1.92;1.35;;;;;;;;;;6132221;23;20069;-93
2023/12/20 18:22:58;;;;;;;2.28;1.38;;;;;;;;;;6132709;23;20570;-95
2023/12/20 18:25:29;;;;;;;2.00;1.20;;;;;;;;;;6132340;23;20013;-92
2023/12/20 18:27:58;;;;;;;2.97;2.22;;;;;;;;;;6131773;23;20005;-93
2023/12/20 18:30:27;;;;;;;2.40;1.65;;;;;;;;;;6131969;23;20081;-94
2023/12/20 18:32:59;;;;;;;2.75;2.15;;;;;;;;;;6135231;23;20036;-96
2023/12/20 18:35:37;;;;;;;3.17;1.58;;;;;;;;;;6189258;23;20009;-93